Terminal Aerodrome Forecast
Issued by NWS Sterling, VA

Current Version | Previous Version | Graphics & Text | Print | Product List | Glossary On
Versions: 1 2 3 4 5 6 7 8 9 10 11 12 13 14 15 16 17 18 19 20 21 22
000
FTUS41 KLWX 150533
TAFMRB
TAF
KMRB 150533Z 1506/1606 00000KT 4SM BR BKN016 OVC024
     FM151000 00000KT 2SM BR OVC015
     FM151100 00000KT 1 1/2SM BR OVC008
     FM151300 00000KT 2SM BR OVC008
     FM151700 00000KT P6SM BKN025
     FM151800 00000KT P6SM BKN045
     FM160300 00000KT P6SM FEW250=

USA.gov is the U.S. government's official web portal to all federal, state and local government web resources and services.